Updated01/04/2020 9:06pm 
 

Nearby Airport METAR Reports

 

KVSF - Springfield, Vermont, USA
Distance from station: WSW 8mi, 12km
Updated: 04/02/2020 2:37am
Overcast
Overcast
 Wind from varies
Wind: varies 5 mph , 7 km/h, Gust: 16 mph , 26 km/h
Temperature: 37°F , 3°C
Wind Chill: 33°F , 1°C
Dew Point: 27°F , -3°C
Humidity: 65%
Barometer: 29.73 inHg , 1006.8 hPa
Clouds: Overcast
Visibility: 10 miles , 16 km
Cloud details: Overcast 3100 ft
2020/04/02 06:37 KVSF 020637Z AUTO VRB04G14KT 10SM OVC031 03/M03 A2973 RMK AO2 T00331028
KLEB - Lebanon, New Hampshire, USA
Distance from station: N 18mi, 29km
Updated: 04/02/2020 1:53am
Overcast
Overcast
 Wind from N
Wind: N 7 mph , 11 km/h
Temperature: 39°F , 4°C
Wind Chill: 34°F , 1°C
Dew Point: 28°F , -2°C
Humidity: 65%
Barometer: 29.74 inHg , 1007.1 hPa
Clouds: Overcast
Visibility: 10 miles , 16 km
Cloud details: Overcast 2400 ft
2020/04/02 05:53 KLEB 020553Z AUTO 35006KT 10SM OVC024 04/M02 A2974 RMK AO2 SLP073 T00441017 10072 20044 58012
KRUT - Rutland State, Vermont, USA
Distance from station: WNW 31mi, 50km
Updated: 04/02/2020 2:50am
Overcast
Overcast
 Wind from NNW
Wind: NNW 12 mph , 19 km/h, Gust: 16 mph , 26 km/h
Temperature: 36°F , 2°C
Wind Chill: 28°F , -2°C
Dew Point: 30°F , -1°C
Humidity: 81%
Barometer: 29.77 inHg , 1008.1 hPa
Clouds: Overcast
Visibility: 10 miles , 16 km
Cloud details: Overcast 1300 ft
2020/04/02 06:50 KRUT 020650Z AUTO 33010G14KT 10SM OVC013 02/M01 A2977 RMK AO2 FZRANO $
 
KEEN - Keene/Dillant, New Hampshire, USA
Distance from station: S 34mi, 55km
Updated: 04/02/2020 1:56am
Overcast
Overcast
 Wind from N
Wind: N 13 mph , 20 km/h, Gust: 21 mph , 33 km/h
Temperature: 37°F , 3°C
Wind Chill: 29°F , -2°C
Dew Point: 28°F , -2°C
Humidity: 70%
Barometer: 29.72 inHg , 1006.4 hPa
Clouds: Overcast
Visibility: 10 miles , 16 km
Cloud details: Overcast 2800 ft
2020/04/02 05:56 KEEN 020556Z AUTO 36011G18KT 10SM OVC028 03/M02 A2972 RMK AO2 SLP070 T00331017 10078 20028 58011 $
K1P1 - Plymouth, New Hampshire, USA
Distance from station: NE 42mi, 67km
Updated: 04/02/2020 12:55am
NOT Current
Mostly cloudy
Mostly cloudy
 Wind from WNW
Wind: WNW 8 mph , 13 km/h
Temperature: 39°F , 4°C
Wind Chill: 33°F , 1°C
Dew Point: 30°F , -1°C
Humidity: 70%
Barometer: 29.73 inHg , 1006.8 hPa
Clouds: Mostly cloudy
Visibility: 10 miles , 16 km
Cloud details: Partly cloudy 7000 ft
Mostly cloudy 12000 ft
2020/04/02 04:55 K1P1 020455Z AUTO 29007KT 10SM SCT070 BKN120 04/M01 A2973 RMK AO2 T00351007
KAFN - Jaffrey, New Hampshire, USA
Distance from station: SSE 44mi, 70km
Updated: 04/02/2020 1:52am
Mostly cloudy
Mostly cloudy
 Wind from varies
Wind: varies 6 mph , 9 km/h
Temperature: 36°F , 2°C
Wind Chill: 31°F , -1°C
Dew Point: 30°F , -1°C
Humidity: 81%
Barometer: 29.68 inHg , 1005.1 hPa
Clouds: Mostly cloudy
Visibility: 10 miles , 16 km
Cloud details: Mostly cloudy 3200 ft
2020/04/02 05:52 KAFN 020552Z AUTO VRB05KT 10SM BKN032 02/M01 A2968 RMK AO2 SLP060 T00221011 10039 20017 58012
 
KCON - Concord, New Hampshire, USA
Distance from station: ESE 45mi, 73km
Updated: 04/02/2020 1:51am
Overcast
Overcast
 Wind from NNW
Wind: NNW 8 mph , 13 km/h
Temperature: 39°F , 4°C
Wind Chill: 33°F , 1°C
Dew Point: 28°F , -2°C
Humidity: 65%
Barometer: 29.69 inHg , 1005.4 hPa
Clouds: Overcast
Visibility: 10 miles , 16 km
Cloud details: Overcast 3400 ft
2020/04/02 05:51 KCON 020551Z AUTO 33007KT 10SM OVC034 04/M02 A2969 RMK AO2 SLP057 T00391022 10067 20039 58012
KLCI - Laconia Muni, New Hampshire, USA
Distance from station: ENE 49mi, 80km
Updated: 04/02/2020 1:56am
Light rain, Overcast
Light rain, Overcast
 Wind from NW
Wind: NW 6 mph , 9 km/h
Temperature: 39°F , 4°C
Wind Chill: 35°F , 2°C
Dew Point: 30°F , -1°C
Humidity: 70%
Barometer: 29.68 inHg , 1005.1 hPa
Summary: Light rain
Clouds: Overcast
Visibility: 10 miles , 16 km
Cloud details: Mostly cloudy 3300 ft
Mostly cloudy 4600 ft
Overcast 5500 ft
2020/04/02 05:56 KLCI 020556Z AUTO 31005KT 10SM -RA BKN033 BKN046 OVC055 04/M01 A2968 RMK AO2 RAB37 SLP056 P0000 60000 T00391011 10061 20039 58015
KDDH - Bennington, Vermont, USA
Distance from station: SW 55mi, 89km
Updated: 04/02/2020 1:54am
Overcast
Overcast
 Wind from NNW
Wind: NNW 9 mph , 15 km/h, Gust: 18 mph , 30 km/h
Temperature: 37°F , 3°C
Wind Chill: 30°F , -1°C
Dew Point: 28°F , -2°C
Humidity: 70%
Barometer: 29.76 inHg , 1007.8 hPa
Clouds: Overcast
Visibility: 10 miles , 16 km
Cloud details: Overcast 2700 ft
2020/04/02 05:54 KDDH 020554Z AUTO 33008G16KT 10SM OVC027 03/M02 A2976 RMK AO2 SLP081 T00281022 10061 20022 58007
 
K6B0 - Middlebury, Vermont, USA
Distance from station: NW 56mi, 90km
Updated: 04/02/2020 2:35am
Overcast
Overcast
 Wind from NNW
Wind: NNW 8 mph , 13 km/h
Temperature: 36°F , 2°C
Wind Chill: 30°F , -1°C
Dew Point: 30°F , -1°C
Humidity: 81%
Barometer: 29.80 inHg , 1009.1 hPa
Clouds: Overcast
Visibility: 10 miles , 16 km
Cloud details: Overcast 1600 ft
2020/04/02 06:35 K6B0 020635Z AUTO 34007KT 10SM OVC016 02/M01 A2980 RMK AO2 T00151011
KMHT - Manchester, New Hampshire, USA
Distance from station: ESE 56mi, 90km
Updated: 04/02/2020 1:53am
Overcast
Overcast
 Wind from NNW
Wind: NNW 12 mph , 19 km/h
Temperature: 43°F , 6°C
Wind Chill: 37°F , 3°C
Dew Point: 28°F , -2°C
Humidity: 57%
Barometer: 29.67 inHg , 1004.7 hPa
Clouds: Overcast
Visibility: 10 miles , 16 km
Cloud details: Overcast 3400 ft
2020/04/02 05:53 KMHT 020553Z 34010KT 10SM OVC034 06/M02 A2967 RMK AO2 SLP062 T00561022 10083 20056 58013
KORE - Orange, Massachusetts, USA
Distance from station: S 56mi, 90km
Updated: 04/02/2020 1:52am
Clear
Clear
 Wind from NNW
Wind: NNW 9 mph , 15 km/h
Temperature: 37°F , 3°C
Wind Chill: 30°F , -1°C
Dew Point: 28°F , -2°C
Humidity: 70%
Barometer: 29.71 inHg , 1006.1 hPa
Clouds: Clear
Visibility: 10 miles , 16 km
2020/04/02 05:52 KORE 020552Z AUTO 34008KT 10SM CLR 03/M02 A2971 RMK AO2 SLP063 T00331022 10089 20033 58011
 
KMPV - Montpelier/Barre, Vermont, USA
Distance from station: N 58mi, 93km
Updated: 04/02/2020 2:30am
Overcast
Overcast
 Wind from NNW
Wind: NNW 10 mph , 17 km/h
Temperature: 34°F , 1°C
Wind Chill: 26°F , -3°C
Dew Point: 28°F , -2°C
Humidity: 81%
Barometer: 29.79 inHg , 1008.8 hPa
Clouds: Overcast
Visibility: 10 miles , 16 km
Cloud details: Overcast 2800 ft
2020/04/02 06:30 KMPV 020630Z AUTO 34009KT 10SM OVC028 01/M02 A2979 RMK AO2 SNE06 P0000 T00111022
KASH - Nashua/Boire Fld, New Hampshire, USA
Distance from station: SE 59mi, 95km
Updated: 04/02/2020 1:56am
Overcast
Overcast
 Wind from NNW
Wind: NNW 12 mph , 19 km/h
Temperature: 41°F , 5°C
Wind Chill: 34°F , 1°C
Dew Point: 30°F , -1°C
Humidity: 66%
Barometer: 29.68 inHg , 1005.1 hPa
Clouds: Overcast
Visibility: 10 miles , 16 km
Cloud details: Overcast 3500 ft
2020/04/02 05:56 KASH 020556Z AUTO 33010KT 10SM OVC035 05/M01 A2968 RMK AO2 SLP057 T00501011 10072 20050 58013
KAQW - North Adams, Massachusetts, USA
Distance from station: SW 62mi, 99km
Updated: 04/02/2020 1:52am
Overcast
Overcast
 Wind from W
Wind: W 7 mph , 11 km/h
Temperature: 37°F , 3°C
Wind Chill: 32°F , 0°C
Dew Point: 28°F , -2°C
Humidity: 70%
Barometer: 29.76 inHg , 1007.8 hPa
Clouds: Overcast
Visibility: 10 miles , 16 km
Cloud details: Overcast 2300 ft
2020/04/02 05:52 KAQW 020552Z AUTO 27006KT 10SM OVC023 03/M02 A2976 RMK AO2 SLP081 T00281017 10061 20022 58005
 
KGFL - Glens Falls, New York, USA
Distance from station: W 63mi, 101km
Updated: 04/02/2020 1:53am
Mostly cloudy
Mostly cloudy
 Wind from N
Wind: N 8 mph , 13 km/h
Temperature: 37°F , 3°C
Wind Chill: 31°F , -1°C
Dew Point: 28°F , -2°C
Humidity: 70%
Barometer: 29.81 inHg , 1009.5 hPa
Clouds: Mostly cloudy
Visibility: 10 miles , 16 km
Cloud details: Mostly cloudy 3900 ft
Mostly cloudy 4600 ft
2020/04/02 05:53 KGFL 020553Z AUTO 35007KT 10SM BKN039 BKN046 03/M02 A2981 RMK AO2 SLP100 T00331022 10050 20028 56007
KFIT - Fitchburg, Massachusetts, USA
Distance from station: SSE 65mi, 105km
Updated: 04/02/2020 1:52am
Overcast
Overcast
 Wind from NW
Wind: NW 9 mph , 15 km/h
Temperature: 39°F , 4°C
Wind Chill: 33°F , 1°C
Dew Point: 28°F , -2°C
Humidity: 65%
Barometer: 29.68 inHg , 1005.1 hPa
Clouds: Overcast
Visibility: 10 miles , 16 km
Cloud details: Overcast 3800 ft
2020/04/02 05:52 KFIT 020552Z AUTO 32008KT 10SM OVC038 04/M02 A2968 RMK AO2 SLP053 T00441022 10056 20039 58014
KDAW - Rochester, New Hampshire, USA
Distance from station: E 73mi, 118km
Updated: 04/02/2020 1:51am
Overcast
Overcast
 Wind from NNW
Wind: NNW 10 mph , 17 km/h
Temperature: 39°F , 4°C
Wind Chill: 32°F , 0°C
Dew Point: 32°F , 0°C
Humidity: 75%
Barometer: 29.66 inHg , 1004.4 hPa
Clouds: Overcast
Visibility: 10 miles , 16 km
Cloud details: Few Clouds 3300 ft
Mostly cloudy 7000 ft
Overcast 8000 ft
2020/04/02 05:51 KDAW 020551Z AUTO 34009KT 10SM FEW033 BKN070 OVC080 04/00 A2966 RMK AO2 RAB18E27 SLP043 P0000 60000 T00390000 10067 20039 58017
 
K1V4 - St. Johnsbury, Vermont, USA
Distance from station: NNE 74mi, 119km
Updated: 04/02/2020 1:54am

 
Temperature: 36°F , 2°C
Dew Point: 28°F , -2°C
Humidity: 75%
Barometer: 29.76 inHg , 1007.8 hPa
2020/04/02 05:54 K1V4 020554Z AUTO 02/M02 A2976 RMK AO1 SLP083 T00221017 10044 20022 58008
KLWM - Lawrence, Massachusetts, USA
Distance from station: SE 77mi, 124km
Updated: 04/02/2020 1:54am
Light rain, Overcast
Light rain, Overcast
 Wind from N
Wind: N 10 mph , 17 km/h
Temperature: 39°F , 4°C
Wind Chill: 32°F , 0°C
Dew Point: 34°F , 1°C
Humidity: 81%
Barometer: 29.68 inHg , 1005.1 hPa
Summary: Light rain
Clouds: Overcast
Visibility: 10 miles , 16 km
Cloud details: Overcast 2700 ft
2020/04/02 05:54 KLWM 020554Z AUTO 35009KT 10SM -RA OVC027 04/01 A2968 RMK AO2 RAB08 SLP050 P0000 60000 T00440011 10067 20044 58014



Flag Counter
free counter page views since 4/29/2009